sensor_id;sensor_type;location;lat;lon;timestamp;temperature;humidity
36818;DHT22;22761;51.542;16.450;2022-07-12T00:01:56;13.58;73.62
36818;DHT22;22761;51.542;16.450;2022-07-12T00:04:23;13.55;73.50
36818;DHT22;22761;51.542;16.450;2022-07-12T00:06:50;13.53;73.59
36818;DHT22;22761;51.542;16.450;2022-07-12T00:09:17;13.51;73.84
36818;DHT22;22761;51.542;16.450;2022-07-12T00:11:44;13.46;73.84
36818;DHT22;22761;51.542;16.450;2022-07-12T00:14:11;13.42;73.97
36818;DHT22;22761;51.542;16.450;2022-07-12T00:16:38;13.39;74.14
36818;DHT22;22761;51.542;16.450;2022-07-12T00:19:05;13.38;74.16
36818;DHT22;22761;51.542;16.450;2022-07-12T00:21:32;13.37;74.22
36818;DHT22;22761;51.542;16.450;2022-07-12T00:24:00;13.38;74.42
36818;DHT22;22761;51.542;16.450;2022-07-12T00:26:27;13.34;74.62
36818;DHT22;22761;51.542;16.450;2022-07-12T00:28:55;13.34;74.67
36818;DHT22;22761;51.542;16.450;2022-07-12T00:31:24;13.34;74.69
36818;DHT22;22761;51.542;16.450;2022-07-12T00:33:50;13.32;74.95
36818;DHT22;22761;51.542;16.450;2022-07-12T00:36:19;13.32;74.90
36818;DHT22;22761;51.542;16.450;2022-07-12T00:38:46;13.34;75.20
36818;DHT22;22761;51.542;16.450;2022-07-12T00:41:13;13.34;74.81
36818;DHT22;22761;51.542;16.450;2022-07-12T00:43:40;13.34;75.16
36818;DHT22;22761;51.542;16.450;2022-07-12T00:46:08;13.32;75.74
36818;DHT22;22761;51.542;16.450;2022-07-12T00:48:36;13.34;74.93
36818;DHT22;22761;51.542;16.450;2022-07-12T00:51:04;13.34;75.56
36818;DHT22;22761;51.542;16.450;2022-07-12T00:53:31;13.31;75.51
36818;DHT22;22761;51.542;16.450;2022-07-12T00:55:58;13.30;75.58
36818;DHT22;22761;51.542;16.450;2022-07-12T00:58:26;13.30;74.92
36818;DHT22;22761;51.542;16.450;2022-07-12T01:00:56;13.24;75.26
36818;DHT22;22761;51.542;16.450;2022-07-12T01:03:25;13.21;75.46
36818;DHT22;22761;51.542;16.450;2022-07-12T01:05:52;13.18;75.20
36818;DHT22;22761;51.542;16.450;2022-07-12T01:08:20;13.15;75.88
36818;DHT22;22761;51.542;16.450;2022-07-12T01:10:48;13.14;75.78
36818;DHT22;22761;51.542;16.450;2022-07-12T01:13:20;13.11;75.67
36818;DHT22;22761;51.542;16.450;2022-07-12T01:15:48;13.07;75.92
36818;DHT22;22761;51.542;16.450;2022-07-12T01:18:16;13.06;75.77
36818;DHT22;22761;51.542;16.450;2022-07-12T01:20:45;13.07;75.91
36818;DHT22;22761;51.542;16.450;2022-07-12T01:23:13;13.06;75.85
36818;DHT22;22761;51.542;16.450;2022-07-12T01:25:40;13.06;76.60
36818;DHT22;22761;51.542;16.450;2022-07-12T01:28:07;13.10;77.11
36818;DHT22;22761;51.542;16.450;2022-07-12T01:30:34;13.10;76.91
36818;DHT22;22761;51.542;16.450;2022-07-12T01:33:01;13.14;77.51
36818;DHT22;22761;51.542;16.450;2022-07-12T01:35:29;13.17;77.14
36818;DHT22;22761;51.542;16.450;2022-07-12T01:37:57;13.20;76.54
36818;DHT22;22761;51.542;16.450;2022-07-12T01:40:25;13.17;76.68
36818;DHT22;22761;51.542;16.450;2022-07-12T01:42:52;13.17;76.37
36818;DHT22;22761;51.542;16.450;2022-07-12T01:45:19;13.15;76.14
36818;DHT22;22761;51.542;16.450;2022-07-12T01:47:46;13.14;75.90
36818;DHT22;22761;51.542;16.450;2022-07-12T01:50:13;13.13;76.41
36818;DHT22;22761;51.542;16.450;2022-07-12T01:52:41;13.10;76.23
36818;DHT22;22761;51.542;16.450;2022-07-12T01:55:10;13.10;77.08
36818;DHT22;22761;51.542;16.450;2022-07-12T01:57:44;13.11;77.00
36818;DHT22;22761;51.542;16.450;2022-07-12T02:00:08;13.10;77.08
36818;DHT22;22761;51.542;16.450;2022-07-12T02:02:35;13.08;76.44
36818;DHT22;22761;51.542;16.450;2022-07-12T02:05:05;13.08;76.44
36818;DHT22;22761;51.542;16.450;2022-07-12T02:07:34;13.08;76.37
36818;DHT22;22761;51.542;16.450;2022-07-12T02:10:05;13.07;75.96
36818;DHT22;22761;51.542;16.450;2022-07-12T02:12:35;13.06;77.12
36818;DHT22;22761;51.542;16.450;2022-07-12T02:15:06;13.03;77.44
36818;DHT22;22761;51.542;16.450;2022-07-12T02:17:34;13.03;77.25
36818;DHT22;22761;51.542;16.450;2022-07-12T02:20:02;13.03;77.87
36818;DHT22;22761;51.542;16.450;2022-07-12T02:22:30;13.06;78.01
36818;DHT22;22761;51.542;16.450;2022-07-12T02:24:57;13.08;77.35
36818;DHT22;22761;51.542;16.450;2022-07-12T02:27:24;13.07;77.08
36818;DHT22;22761;51.542;16.450;2022-07-12T02:29:51;13.07;76.45
36818;DHT22;22761;51.542;16.450;2022-07-12T02:32:18;13.00;77.13
36818;DHT22;22761;51.542;16.450;2022-07-12T02:34:45;13.00;76.71
36818;DHT22;22761;51.542;16.450;2022-07-12T02:37:12;13.00;76.67
36818;DHT22;22761;51.542;16.450;2022-07-12T02:39:40;12.96;76.78
36818;DHT22;22761;51.542;16.450;2022-07-12T02:42:07;12.97;76.84
36818;DHT22;22761;51.542;16.450;2022-07-12T02:44:35;12.97;77.16
36818;DHT22;22761;51.542;16.450;2022-07-12T02:47:02;13.00;78.37
36818;DHT22;22761;51.542;16.450;2022-07-12T02:49:29;13.02;77.58
36818;DHT22;22761;51.542;16.450;2022-07-12T02:51:56;13.06;78.72
36818;DHT22;22761;51.542;16.450;2022-07-12T02:54:23;13.11;78.96
36818;DHT22;22761;51.542;16.450;2022-07-12T02:56:50;13.14;78.90
36818;DHT22;22761;51.542;16.450;2022-07-12T02:59:17;13.18;78.47
36818;DHT22;22761;51.542;16.450;2022-07-12T03:01:44;13.21;78.43
36818;DHT22;22761;51.542;16.450;2022-07-12T03:04:12;13.23;77.63
36818;DHT22;22761;51.542;16.450;2022-07-12T03:06:39;13.25;77.28
36818;DHT22;22761;51.542;16.450;2022-07-12T03:09:06;13.28;78.27
36818;DHT22;22761;51.542;16.450;2022-07-12T03:11:33;13.35;77.76
36818;DHT22;22761;51.542;16.450;2022-07-12T03:14:00;13.38;78.10
36818;DHT22;22761;51.542;16.450;2022-07-12T03:16:28;13.48;77.91
36818;DHT22;22761;51.542;16.450;2022-07-12T03:18:54;13.51;78.08
36818;DHT22;22761;51.542;16.450;2022-07-12T03:21:21;13.56;77.52
36818;DHT22;22761;51.542;16.450;2022-07-12T03:23:48;13.62;77.84
36818;DHT22;22761;51.542;16.450;2022-07-12T03:26:16;13.69;78.66
36818;DHT22;22761;51.542;16.450;2022-07-12T03:28:43;13.76;77.49
36818;DHT22;22761;51.542;16.450;2022-07-12T03:31:11;13.79;77.12
36818;DHT22;22761;51.542;16.450;2022-07-12T03:33:38;13.87;77.24
36818;DHT22;22761;51.542;16.450;2022-07-12T03:36:06;13.92;77.38
36818;DHT22;22761;51.542;16.450;2022-07-12T03:38:35;13.94;77.81
36818;DHT22;22761;51.542;16.450;2022-07-12T03:41:03;14.01;77.81
36818;DHT22;22761;51.542;16.450;2022-07-12T03:43:33;14.08;77.54
36818;DHT22;22761;51.542;16.450;2022-07-12T03:46:00;14.11;77.26
36818;DHT22;22761;51.542;16.450;2022-07-12T03:48:27;14.15;77.14
36818;DHT22;22761;51.542;16.450;2022-07-12T03:50:54;14.18;77.03
36818;DHT22;22761;51.542;16.450;2022-07-12T03:53:22;14.24;76.46
36818;DHT22;22761;51.542;16.450;2022-07-12T03:55:49;14.20;76.84
36818;DHT22;22761;51.542;16.450;2022-07-12T03:58:16;14.25;76.93
36818;DHT22;22761;51.542;16.450;2022-07-12T04:00:43;14.25;76.62
36818;DHT22;22761;51.542;16.450;2022-07-12T04:03:10;14.24;76.68
36818;DHT22;22761;51.542;16.450;2022-07-12T04:05:38;14.27;76.61
36818;DHT22;22761;51.542;16.450;2022-07-12T04:08:05;14.32;76.38
36818;DHT22;22761;51.542;16.450;2022-07-12T04:10:33;14.35;76.50
36818;DHT22;22761;51.542;16.450;2022-07-12T04:13:00;14.35;77.25
36818;DHT22;22761;51.542;16.450;2022-07-12T04:15:27;14.35;77.63
36818;DHT22;22761;51.542;16.450;2022-07-12T04:17:53;14.43;77.37
36818;DHT22;22761;51.542;16.450;2022-07-12T04:20:20;14.49;76.99
36818;DHT22;22761;51.542;16.450;2022-07-12T04:22:47;14.52;76.91
36818;DHT22;22761;51.542;16.450;2022-07-12T04:25:14;14.58;76.59
36818;DHT22;22761;51.542;16.450;2022-07-12T04:27:41;14.59;76.69
36818;DHT22;22761;51.542;16.450;2022-07-12T04:30:09;14.62;76.46
36818;DHT22;22761;51.542;16.450;2022-07-12T04:32:36;14.63;76.14
36818;DHT22;22761;51.542;16.450;2022-07-12T04:35:04;14.65;76.34
36818;DHT22;22761;51.542;16.450;2022-07-12T04:37:31;14.69;76.28
36818;DHT22;22761;51.542;16.450;2022-07-12T04:39:58;14.73;76.53
36818;DHT22;22761;51.542;16.450;2022-07-12T04:42:25;14.75;75.96
36818;DHT22;22761;51.542;16.450;2022-07-12T04:44:53;14.76;76.47
36818;DHT22;22761;51.542;16.450;2022-07-12T04:47:21;14.82;76.70
36818;DHT22;22761;51.542;16.450;2022-07-12T04:49:48;14.84;76.41
36818;DHT22;22761;51.542;16.450;2022-07-12T04:52:15;14.87;75.60
36818;DHT22;22761;51.542;16.450;2022-07-12T04:54:42;14.87;75.54
36818;DHT22;22761;51.542;16.450;2022-07-12T04:57:09;14.90;75.81
36818;DHT22;22761;51.542;16.450;2022-07-12T04:59:36;14.94;74.80
36818;DHT22;22761;51.542;16.450;2022-07-12T05:02:03;14.98;74.93
36818;DHT22;22761;51.542;16.450;2022-07-12T05:04:33;14.97;74.97
36818;DHT22;22761;51.542;16.450;2022-07-12T05:07:01;15.01;75.30
36818;DHT22;22761;51.542;16.450;2022-07-12T05:09:27;15.03;74.74
36818;DHT22;22761;51.542;16.450;2022-07-12T05:11:54;15.08;75.27
36818;DHT22;22761;51.542;16.450;2022-07-12T05:14:21;15.10;75.23
36818;DHT22;22761;51.542;16.450;2022-07-12T05:16:48;15.15;75.08
36818;DHT22;22761;51.542;16.450;2022-07-12T05:19:15;15.21;75.04
36818;DHT22;22761;51.542;16.450;2022-07-12T05:21:43;15.28;74.65
36818;DHT22;22761;51.542;16.450;2022-07-12T05:24:10;15.38;74.57
36818;DHT22;22761;51.542;16.450;2022-07-12T05:26:37;15.48;73.73
36818;DHT22;22761;51.542;16.450;2022-07-12T05:29:04;15.60;73.84
36818;DHT22;22761;51.542;16.450;2022-07-12T05:31:31;15.70;72.99
36818;DHT22;22761;51.542;16.450;2022-07-12T05:33:58;15.80;73.04
36818;DHT22;22761;51.542;16.450;2022-07-12T05:36:26;15.87;72.69
36818;DHT22;22761;51.542;16.450;2022-07-12T05:38:52;15.97;73.30
36818;DHT22;22761;51.542;16.450;2022-07-12T05:41:19;16.04;72.83
36818;DHT22;22761;51.542;16.450;2022-07-12T05:43:46;16.17;72.47
36818;DHT22;22761;51.542;16.450;2022-07-12T05:46:13;16.27;72.25
36818;DHT22;22761;51.542;16.450;2022-07-12T05:48:40;16.40;71.63
36818;DHT22;22761;51.542;16.450;2022-07-12T05:51:07;16.50;71.61
36818;DHT22;22761;51.542;16.450;2022-07-12T05:53:52;16.62;70.98
36818;DHT22;22761;51.542;16.450;2022-07-12T05:56:19;16.70;70.68
36818;DHT22;22761;51.542;16.450;2022-07-12T05:58:46;16.81;70.60
36818;DHT22;22761;51.542;16.450;2022-07-12T06:01:13;16.90;70.12
36818;DHT22;22761;51.542;16.450;2022-07-12T06:03:40;17.01;70.07
36818;DHT22;22761;51.542;16.450;2022-07-12T06:06:07;17.08;69.72
36818;DHT22;22761;51.542;16.450;2022-07-12T06:08:34;17.19;68.66
36818;DHT22;22761;51.542;16.450;2022-07-12T06:11:01;17.29;68.07
36818;DHT22;22761;51.542;16.450;2022-07-12T06:13:29;17.36;67.35
36818;DHT22;22761;51.542;16.450;2022-07-12T06:15:56;17.46;67.52
36818;DHT22;22761;51.542;16.450;2022-07-12T06:18:22;17.52;66.59
36818;DHT22;22761;51.542;16.450;2022-07-12T06:20:49;17.63;66.09
36818;DHT22;22761;51.542;16.450;2022-07-12T06:23:16;17.70;65.09
36818;DHT22;22761;51.542;16.450;2022-07-12T06:25:44;17.81;65.55
36818;DHT22;22761;51.542;16.450;2022-07-12T06:28:11;17.95;65.00
36818;DHT22;22761;51.542;16.450;2022-07-12T06:30:43;18.02;63.24
36818;DHT22;22761;51.542;16.450;2022-07-12T06:33:12;18.15;62.35
36818;DHT22;22761;51.542;16.450;2022-07-12T06:35:40;18.25;62.34
36818;DHT22;22761;51.542;16.450;2022-07-12T06:38:07;18.40;61.16
36818;DHT22;22761;51.542;16.450;2022-07-12T06:40:35;18.47;60.59
36818;DHT22;22761;51.542;16.450;2022-07-12T06:43:02;18.59;60.19
36818;DHT22;22761;51.542;16.450;2022-07-12T06:45:30;18.67;60.17
36818;DHT22;22761;51.542;16.450;2022-07-12T06:47:57;18.73;58.87
36818;DHT22;22761;51.542;16.450;2022-07-12T06:50:24;18.78;59.44
36818;DHT22;22761;51.542;16.450;2022-07-12T06:52:51;18.78;59.56
36818;DHT22;22761;51.542;16.450;2022-07-12T06:55:17;18.84;57.95
36818;DHT22;22761;51.542;16.450;2022-07-12T06:57:44;18.90;59.04
36818;DHT22;22761;51.542;16.450;2022-07-12T07:00:12;18.97;57.19
36818;DHT22;22761;51.542;16.450;2022-07-12T07:02:39;19.02;57.93
36818;DHT22;22761;51.542;16.450;2022-07-12T07:05:07;19.10;57.84
36818;DHT22;22761;51.542;16.450;2022-07-12T07:07:34;19.22;56.54
36818;DHT22;22761;51.542;16.450;2022-07-12T07:10:01;19.26;56.49
36818;DHT22;22761;51.542;16.450;2022-07-12T07:12:28;19.29;56.73
36818;DHT22;22761;51.542;16.450;2022-07-12T07:14:55;19.36;56.24
36818;DHT22;22761;51.542;16.450;2022-07-12T07:17:22;19.33;56.27
36818;DHT22;22761;51.542;16.450;2022-07-12T07:19:49;19.42;56.49
36818;DHT22;22761;51.542;16.450;2022-07-12T07:22:16;19.49;56.49
36818;DHT22;22761;51.542;16.450;2022-07-12T07:24:43;19.64;55.68
36818;DHT22;22761;51.542;16.450;2022-07-12T07:27:10;19.78;54.87
36818;DHT22;22761;51.542;16.450;2022-07-12T07:29:37;19.85;53.92
36818;DHT22;22761;51.542;16.450;2022-07-12T07:32:22;19.88;52.48
36818;DHT22;22761;51.542;16.450;2022-07-12T07:34:49;19.85;52.86
36818;DHT22;22761;51.542;16.450;2022-07-12T07:37:16;19.85;52.87
36818;DHT22;22761;51.542;16.450;2022-07-12T07:39:43;19.88;52.17
36818;DHT22;22761;51.542;16.450;2022-07-12T07:42:10;19.91;51.74
36818;DHT22;22761;51.542;16.450;2022-07-12T07:44:37;19.93;51.74
36818;DHT22;22761;51.542;16.450;2022-07-12T07:47:04;19.93;52.53
36818;DHT22;22761;51.542;16.450;2022-07-12T07:49:31;19.95;52.58
36818;DHT22;22761;51.542;16.450;2022-07-12T07:51:58;20.01;52.09
36818;DHT22;22761;51.542;16.450;2022-07-12T07:54:25;20.04;52.33
36818;DHT22;22761;51.542;16.450;2022-07-12T07:56:53;20.08;52.42
36818;DHT22;22761;51.542;16.450;2022-07-12T07:59:20;20.12;52.90
36818;DHT22;22761;51.542;16.450;2022-07-12T08:01:46;20.19;52.27
36818;DHT22;22761;51.542;16.450;2022-07-12T08:04:16;20.29;52.00
36818;DHT22;22761;51.542;16.450;2022-07-12T08:06:45;20.34;51.03
36818;DHT22;22761;51.542;16.450;2022-07-12T08:09:12;20.40;50.30
36818;DHT22;22761;51.542;16.450;2022-07-12T08:11:41;20.43;51.87
36818;DHT22;22761;51.542;16.450;2022-07-12T08:14:09;20.48;50.56
36818;DHT22;22761;51.542;16.450;2022-07-12T08:16:37;20.53;50.59
36818;DHT22;22761;51.542;16.450;2022-07-12T08:19:04;20.60;50.90
36818;DHT22;22761;51.542;16.450;2022-07-12T08:21:31;20.65;50.73
36818;DHT22;22761;51.542;16.450;2022-07-12T08:23:58;20.71;50.63
36818;DHT22;22761;51.542;16.450;2022-07-12T08:26:25;20.81;49.84
36818;DHT22;22761;51.542;16.450;2022-07-12T08:28:52;20.89;49.65
36818;DHT22;22761;51.542;16.450;2022-07-12T08:31:20;20.96;48.67
36818;DHT22;22761;51.542;16.450;2022-07-12T08:33:47;21.01;49.65
36818;DHT22;22761;51.542;16.450;2022-07-12T08:36:14;21.06;48.75
36818;DHT22;22761;51.542;16.450;2022-07-12T08:38:41;21.09;48.21
36818;DHT22;22761;51.542;16.450;2022-07-12T08:41:14;21.17;49.63
36818;DHT22;22761;51.542;16.450;2022-07-12T08:43:42;21.24;48.24
36818;DHT22;22761;51.542;16.450;2022-07-12T08:46:12;21.34;48.00
36818;DHT22;22761;51.542;16.450;2022-07-12T08:48:42;21.40;48.49
36818;DHT22;22761;51.542;16.450;2022-07-12T08:51:11;21.46;47.96
36818;DHT22;22761;51.542;16.450;2022-07-12T08:53:39;21.54;49.56
36818;DHT22;22761;51.542;16.450;2022-07-12T08:56:37;21.60;47.81
36818;DHT22;22761;51.542;16.450;2022-07-12T08:59:19;21.68;48.17
36818;DHT22;22761;51.542;16.450;2022-07-12T09:01:51;21.75;47.54
36818;DHT22;22761;51.542;16.450;2022-07-12T09:04:24;21.82;47.68
36818;DHT22;22761;51.542;16.450;2022-07-12T09:06:51;21.94;48.26
36818;DHT22;22761;51.542;16.450;2022-07-12T09:09:34;22.15;47.86
36818;DHT22;22761;51.542;16.450;2022-07-12T09:12:05;22.33;45.64
36818;DHT22;22761;51.542;16.450;2022-07-12T09:14:32;22.46;45.65
36818;DHT22;22761;51.542;16.450;2022-07-12T09:17:05;22.56;46.51
36818;DHT22;22761;51.542;16.450;2022-07-12T09:19:38;22.68;46.06
36818;DHT22;22761;51.542;16.450;2022-07-12T09:22:16;22.79;45.38
36818;DHT22;22761;51.542;16.450;2022-07-12T09:24:46;22.95;45.42
36818;DHT22;22761;51.542;16.450;2022-07-12T09:27:13;23.13;45.59
36818;DHT22;22761;51.542;16.450;2022-07-12T09:29:49;23.30;44.42
36818;DHT22;22761;51.542;16.450;2022-07-12T09:32:16;23.50;44.57
36818;DHT22;22761;51.542;16.450;2022-07-12T09:35:03;23.64;44.53
36818;DHT22;22761;51.542;16.450;2022-07-12T09:37:49;23.68;44.02
36818;DHT22;22761;51.542;16.450;2022-07-12T09:40:17;23.72;43.92
36818;DHT22;22761;51.542;16.450;2022-07-12T09:42:44;23.77;43.78
36818;DHT22;22761;51.542;16.450;2022-07-12T09:45:12;23.87;43.77
36818;DHT22;22761;51.542;16.450;2022-07-12T09:47:42;23.95;43.56
36818;DHT22;22761;51.542;16.450;2022-07-12T09:50:10;24.09;43.62
36818;DHT22;22761;51.542;16.450;2022-07-12T09:52:38;24.23;44.65
36818;DHT22;22761;51.542;16.450;2022-07-12T09:55:09;24.40;42.53
36818;DHT22;22761;51.542;16.450;2022-07-12T09:57:39;24.48;43.17
36818;DHT22;22761;51.542;16.450;2022-07-12T10:00:09;24.71;43.39
36818;DHT22;22761;51.542;16.450;2022-07-12T10:02:39;24.90;42.31
36818;DHT22;22761;51.542;16.450;2022-07-12T10:05:08;24.96;41.00
36818;DHT22;22761;51.542;16.450;2022-07-12T10:07:38;24.95;41.51
36818;DHT22;22761;51.542;16.450;2022-07-12T10:10:06;24.95;42.02
36818;DHT22;22761;51.542;16.450;2022-07-12T10:12:35;24.95;41.48
36818;DHT22;22761;51.542;16.450;2022-07-12T10:15:08;24.83;41.39
36818;DHT22;22761;51.542;16.450;2022-07-12T10:17:36;24.74;41.64
36818;DHT22;22761;51.542;16.450;2022-07-12T10:20:27;24.68;43.19
36818;DHT22;22761;51.542;16.450;2022-07-12T10:22:58;24.64;42.90
36818;DHT22;22761;51.542;16.450;2022-07-12T10:25:33;24.61;42.39
36818;DHT22;22761;51.542;16.450;2022-07-12T10:28:01;24.67;41.37
36818;DHT22;22761;51.542;16.450;2022-07-12T10:30:30;24.61;41.79
36818;DHT22;22761;51.542;16.450;2022-07-12T10:32:59;24.55;41.82
36818;DHT22;22761;51.542;16.450;2022-07-12T10:35:30;24.51;40.90
36818;DHT22;22761;51.542;16.450;2022-07-12T10:38:16;24.42;41.46
36818;DHT22;22761;51.542;16.450;2022-07-12T10:40:46;24.40;41.41
36818;DHT22;22761;51.542;16.450;2022-07-12T10:43:16;24.72;41.13
36818;DHT22;22761;51.542;16.450;2022-07-12T10:45:46;25.05;41.27
36818;DHT22;22761;51.542;16.450;2022-07-12T10:48:20;25.01;41.57
36818;DHT22;22761;51.542;16.450;2022-07-12T10:50:54;24.90;42.06
36818;DHT22;22761;51.542;16.450;2022-07-12T10:53:36;24.79;40.95
36818;DHT22;22761;51.542;16.450;2022-07-12T11:03:56;24.44;42.07
36818;DHT22;22761;51.542;16.450;2022-07-12T11:06:25;24.75;42.21
36818;DHT22;22761;51.542;16.450;2022-07-12T11:09:00;25.67;41.89
36818;DHT22;22761;51.542;16.450;2022-07-12T11:11:33;27.05;39.09
36818;DHT22;22761;51.542;16.450;2022-07-12T11:14:02;28.37;35.50
36818;DHT22;22761;51.542;16.450;2022-07-12T11:16:30;28.92;34.13
36818;DHT22;22761;51.542;16.450;2022-07-12T11:18:58;28.91;33.76
36818;DHT22;22761;51.542;16.450;2022-07-12T11:21:25;28.61;33.75
36818;DHT22;22761;51.542;16.450;2022-07-12T11:23:52;28.30;34.93
36818;DHT22;22761;51.542;16.450;2022-07-12T11:26:21;28.79;34.42
36818;DHT22;22761;51.542;16.450;2022-07-12T11:28:49;29.81;31.91
36818;DHT22;22761;51.542;16.450;2022-07-12T11:31:18;30.15;31.82
36818;DHT22;22761;51.542;16.450;2022-07-12T11:33:49;29.81;30.75
36818;DHT22;22761;51.542;16.450;2022-07-12T11:36:17;29.69;32.19
36818;DHT22;22761;51.542;16.450;2022-07-12T11:38:47;30.60;31.40
36818;DHT22;22761;51.542;16.450;2022-07-12T11:41:15;31.37;29.35
36818;DHT22;22761;51.542;16.450;2022-07-12T11:43:43;32.13;28.91
36818;DHT22;22761;51.542;16.450;2022-07-12T11:46:10;32.91;27.63
36818;DHT22;22761;51.542;16.450;2022-07-12T11:48:40;33.68;25.90
36818;DHT22;22761;51.542;16.450;2022-07-12T11:51:11;34.35;25.24
36818;DHT22;22761;51.542;16.450;2022-07-12T11:53:39;34.66;23.48
36818;DHT22;22761;51.542;16.450;2022-07-12T11:56:11;34.06;24.21
36818;DHT22;22761;51.542;16.450;2022-07-12T11:58:38;33.10;25.18
36818;DHT22;22761;51.542;16.450;2022-07-12T12:01:11;32.22;25.92
36818;DHT22;22761;51.542;16.450;2022-07-12T12:03:46;31.42;28.15
36818;DHT22;22761;51.542;16.450;2022-07-12T12:06:14;30.79;27.92
36818;DHT22;22761;51.542;16.450;2022-07-12T12:08:42;30.37;28.40
36818;DHT22;22761;51.542;16.450;2022-07-12T12:11:11;30.12;29.38
36818;DHT22;22761;51.542;16.450;2022-07-12T12:13:38;30.19;29.62
36818;DHT22;22761;51.542;16.450;2022-07-12T12:16:06;30.37;29.36
36818;DHT22;22761;51.542;16.450;2022-07-12T12:18:36;30.61;29.80
36818;DHT22;22761;51.542;16.450;2022-07-12T12:21:06;31.00;29.03
36818;DHT22;22761;51.542;16.450;2022-07-12T12:23:36;31.34;28.76
36818;DHT22;22761;51.542;16.450;2022-07-12T12:26:13;31.68;27.65
36818;DHT22;22761;51.542;16.450;2022-07-12T12:28:50;31.95;27.57
36818;DHT22;22761;51.542;16.450;2022-07-12T12:31:20;32.20;26.85
36818;DHT22;22761;51.542;16.450;2022-07-12T12:33:55;32.26;26.81
36818;DHT22;22761;51.542;16.450;2022-07-12T12:36:36;31.95;27.28
36818;DHT22;22761;51.542;16.450;2022-07-12T12:39:04;31.45;27.86
36818;DHT22;22761;51.542;16.450;2022-07-12T12:41:41;30.86;28.26
36818;DHT22;22761;51.542;16.450;2022-07-12T12:44:11;30.20;29.49
36818;DHT22;22761;51.542;16.450;2022-07-12T12:46:55;29.61;30.01
36818;DHT22;22761;51.542;16.450;2022-07-12T12:49:44;29.07;31.11
36818;DHT22;22761;51.542;16.450;2022-07-12T12:52:12;28.71;30.89
36818;DHT22;22761;51.542;16.450;2022-07-12T12:54:41;28.43;30.98
36818;DHT22;22761;51.542;16.450;2022-07-12T12:57:08;28.22;31.66
36818;DHT22;22761;51.542;16.450;2022-07-12T12:59:37;28.18;32.80
36818;DHT22;22761;51.542;16.450;2022-07-12T13:02:06;28.24;31.82
36818;DHT22;22761;51.542;16.450;2022-07-12T13:04:36;28.18;32.23
36818;DHT22;22761;51.542;16.450;2022-07-12T13:07:04;28.10;31.41
36818;DHT22;22761;51.542;16.450;2022-07-12T13:09:33;28.03;33.23
36818;DHT22;22761;51.542;16.450;2022-07-12T13:12:00;28.16;31.71
36818;DHT22;22761;51.542;16.450;2022-07-12T13:14:28;28.30;32.57
36818;DHT22;22761;51.542;16.450;2022-07-12T13:16:55;28.44;32.31
36818;DHT22;22761;51.542;16.450;2022-07-12T13:19:23;28.48;32.33
36818;DHT22;22761;51.542;16.450;2022-07-12T13:21:50;28.58;32.95
36818;DHT22;22761;51.542;16.450;2022-07-12T13:24:17;28.79;32.99
36818;DHT22;22761;51.542;16.450;2022-07-12T13:26:44;29.07;30.72
36818;DHT22;22761;51.542;16.450;2022-07-12T13:29:11;29.41;30.54
36818;DHT22;22761;51.542;16.450;2022-07-12T13:31:39;29.73;30.92
36818;DHT22;22761;51.542;16.450;2022-07-12T13:34:06;29.98;29.45
36818;DHT22;22761;51.542;16.450;2022-07-12T13:36:33;30.19;28.90
36818;DHT22;22761;51.542;16.450;2022-07-12T13:39:01;30.38;28.99
36818;DHT22;22761;51.542;16.450;2022-07-12T13:41:30;30.54;27.80
36818;DHT22;22761;51.542;16.450;2022-07-12T13:43:57;30.67;27.57
36818;DHT22;22761;51.542;16.450;2022-07-12T13:46:24;30.69;27.70
36818;DHT22;22761;51.542;16.450;2022-07-12T13:48:51;30.51;27.53
36818;DHT22;22761;51.542;16.450;2022-07-12T13:51:18;30.41;28.04
36818;DHT22;22761;51.542;16.450;2022-07-12T13:53:45;30.46;27.69
36818;DHT22;22761;51.542;16.450;2022-07-12T13:56:12;30.57;27.37
36818;DHT22;22761;51.542;16.450;2022-07-12T13:58:40;30.65;27.69
36818;DHT22;22761;51.542;16.450;2022-07-12T14:01:07;30.69;28.04
36818;DHT22;22761;51.542;16.450;2022-07-12T14:03:34;30.64;27.26
36818;DHT22;22761;51.542;16.450;2022-07-12T14:06:01;30.37;27.89
36818;DHT22;22761;51.542;16.450;2022-07-12T14:08:28;30.12;28.13
36818;DHT22;22761;51.542;16.450;2022-07-12T14:10:55;29.88;26.97
36818;DHT22;22761;51.542;16.450;2022-07-12T14:13:22;29.60;27.97
36818;DHT22;22761;51.542;16.450;2022-07-12T14:15:50;29.26;28.49
36818;DHT22;22761;51.542;16.450;2022-07-12T14:18:18;28.99;28.83
36818;DHT22;22761;51.542;16.450;2022-07-12T14:21:10;28.72;29.51
36818;DHT22;22761;51.542;16.450;2022-07-12T14:23:37;28.64;30.02
36818;DHT22;22761;51.542;16.450;2022-07-12T14:26:04;28.55;29.47
36818;DHT22;22761;51.542;16.450;2022-07-12T14:28:34;28.54;30.99
36818;DHT22;22761;51.542;16.450;2022-07-12T14:31:03;28.61;30.48
36818;DHT22;22761;51.542;16.450;2022-07-12T14:33:32;28.74;30.52
36818;DHT22;22761;51.542;16.450;2022-07-12T14:36:02;28.93;30.20
36818;DHT22;22761;51.542;16.450;2022-07-12T14:38:30;29.00;29.73
36818;DHT22;22761;51.542;16.450;2022-07-12T14:40:57;28.98;28.79
36818;DHT22;22761;51.542;16.450;2022-07-12T14:43:25;28.82;29.67
36818;DHT22;22761;51.542;16.450;2022-07-12T14:45:52;28.77;30.02
36818;DHT22;22761;51.542;16.450;2022-07-12T14:48:19;28.83;30.17
36818;DHT22;22761;51.542;16.450;2022-07-12T14:50:46;28.95;29.83
36818;DHT22;22761;51.542;16.450;2022-07-12T14:53:13;29.05;29.61
36818;DHT22;22761;51.542;16.450;2022-07-12T14:55:40;29.17;29.23
36818;DHT22;22761;51.542;16.450;2022-07-12T14:58:07;29.33;28.86
36818;DHT22;22761;51.542;16.450;2022-07-12T15:00:36;29.47;29.43
36818;DHT22;22761;51.542;16.450;2022-07-12T15:03:03;29.62;29.00
36818;DHT22;22761;51.542;16.450;2022-07-12T15:05:30;29.72;28.31
36818;DHT22;22761;51.542;16.450;2022-07-12T15:07:57;29.75;28.57
36818;DHT22;22761;51.542;16.450;2022-07-12T15:10:24;29.76;28.32
36818;DHT22;22761;51.542;16.450;2022-07-12T15:12:51;29.68;28.96
36818;DHT22;22761;51.542;16.450;2022-07-12T15:15:18;29.57;28.63
36818;DHT22;22761;51.542;16.450;2022-07-12T15:17:45;29.47;28.40
36818;DHT22;22761;51.542;16.450;2022-07-12T15:20:12;29.19;29.10
36818;DHT22;22761;51.542;16.450;2022-07-12T15:22:39;28.96;29.14
36818;DHT22;22761;51.542;16.450;2022-07-12T15:25:10;28.91;29.29
36818;DHT22;22761;51.542;16.450;2022-07-12T15:27:37;28.86;29.47
36818;DHT22;22761;51.542;16.450;2022-07-12T15:30:06;28.85;29.92
36818;DHT22;22761;51.542;16.450;2022-07-12T15:32:33;28.96;29.17